Mans de Ciudad Jardin Bairoa, Puerto Rico
Current Conditions -  °F | °C
As of 6:56 AM on Monday 20 Oct 2014 (Local Time) from TJSJ Reporting Station
Scattered Clouds Scattered Clouds  
Wind Chill: 79°   Ceiling: Unl
Heat Index: 83°   Visibility: 10mi
Dew Point: 75°   Wind: 0mph
Humidity: 88%   Direction: NA
Pressure: 29.96"   Gusts: NA
Location:  18.2351°N, 66.0374°W
Report Text: TJSJ 201056Z 00000KT 10SM FEW024 SCT070 26/24 A2996 RMK AO2 SLP145 SHRA DSNT SE T02610239
Loading
Personal Weather Stations






























Interactive Weather Map
Tropical Storm Tracking
New forecast layout! Learn more

10-Day Weather Forecast

Advertisements
Track Severe Weather on mobile